createdAt,value
2019-01-18T00:01:00.855Z,242.28
2019-01-18T00:03:30.533Z,248.90
2019-01-18T00:06:00.209Z,244.70
2019-01-18T00:08:29.906Z,247.75
2019-01-18T00:11:00.338Z,247.05
2019-01-18T00:13:37.391Z,250.15
2019-01-18T00:16:07.251Z,248.43
2019-01-18T00:18:37.127Z,247.25
2019-01-18T00:21:06.855Z,244.75
2019-01-18T00:23:37.517Z,249.40
2019-01-18T00:26:07.317Z,251.47
2019-01-18T00:28:37.002Z,250.72
2019-01-18T00:31:06.729Z,253.40
2019-01-18T00:33:36.434Z,255.85
2019-01-18T00:36:07.119Z,256.68
2019-01-18T00:38:36.823Z,258.15
2019-01-18T00:41:06.573Z,258.00
2019-01-18T00:43:36.221Z,251.95
2019-01-18T00:46:06.753Z,248.13
2019-01-18T00:48:36.517Z,236.50
2019-01-18T00:51:06.254Z,234.62
2019-01-18T00:53:35.970Z,232.80
2019-01-18T00:56:05.746Z,230.20
2019-01-18T00:58:35.406Z,219.05
2019-01-18T01:01:05.156Z,216.63
2019-01-18T01:03:34.830Z,214.08
2019-01-18T01:06:04.746Z,206.95
2019-01-18T01:08:34.554Z,205.85
2019-01-18T01:11:04.372Z,203.70
2019-01-18T01:13:34.178Z,201.75
2019-01-18T01:16:03.934Z,201.05
2019-01-18T01:18:33.655Z,199.57
2019-01-18T01:21:03.401Z,203.15
2019-01-18T01:23:33.031Z,205.80
2019-01-18T01:26:02.896Z,210.30
2019-01-18T01:28:32.569Z,207.57
2019-01-18T01:31:02.486Z,209.98
2019-01-18T01:33:32.312Z,209.87
2019-01-18T01:36:01.915Z,209.27
2019-01-18T01:38:31.691Z,206.85
2019-01-18T01:41:02.351Z,210.32
2019-01-18T01:43:32.169Z,208.20
2019-01-18T01:46:01.951Z,210.38
2019-01-18T01:48:31.703Z,217.13
2019-01-18T01:51:01.370Z,217.97
2019-01-18T01:53:31.044Z,214.78
2019-01-18T01:56:00.642Z,212.68
2019-01-18T01:58:30.401Z,213.30
2019-01-18T02:01:00.087Z,214.48
2019-01-18T02:03:30.753Z,212.90
2019-01-18T02:06:00.441Z,216.80
2019-01-18T02:08:30.187Z,214.93
2019-01-18T02:10:59.950Z,212.82
2019-01-18T02:13:30.710Z,215.52
2019-01-18T02:16:00.444Z,212.50
2019-01-18T02:18:30.176Z,209.67
2019-01-18T02:21:00.240Z,215.82
2019-01-18T02:23:30.055Z,211.25
2019-01-18T02:25:59.723Z,216.60
2019-01-18T02:28:29.324Z,216.25
2019-01-18T02:30:59.144Z,218.95
2019-01-18T02:33:28.880Z,220.80
2019-01-18T02:35:58.802Z,219.15
2019-01-18T02:38:29.389Z,219.93
2019-01-18T02:40:59.097Z,222.75
2019-01-18T02:43:28.778Z,224.35
2019-01-18T02:45:58.561Z,225.35
2019-01-18T02:48:29.222Z,226.75
2019-01-18T02:50:59.050Z,225.22
2019-01-18T02:53:28.955Z,221.57
2019-01-18T02:55:59.603Z,227.40
2019-01-18T02:58:29.286Z,224.25
2019-01-18T03:00:58.898Z,224.22
2019-01-18T03:03:29.667Z,222.73
2019-01-18T03:05:59.350Z,221.20
2019-01-18T03:08:29.149Z,223.82
2019-01-18T03:10:59.015Z,217.40
2019-01-18T03:13:28.698Z,210.82
2019-01-18T03:15:58.387Z,212.70
2019-01-18T03:18:27.998Z,208.38
2019-01-18T03:20:57.693Z,208.97
2019-01-18T03:23:27.409Z,207.00
2019-01-18T03:25:57.157Z,209.62
2019-01-18T03:28:26.898Z,211.50
2019-01-18T03:30:56.591Z,210.30
2019-01-18T03:33:26.481Z,208.25
2019-01-18T03:35:56.168Z,204.00
2019-01-18T03:38:25.977Z,205.95
2019-01-18T03:40:56.761Z,204.63
2019-01-18T03:43:26.501Z,201.20
2019-01-18T03:45:56.235Z,203.92
2019-01-18T03:48:25.898Z,203.32
2019-01-18T03:50:55.720Z,201.40
2019-01-18T03:53:25.387Z,203.45
2019-01-18T03:55:55.170Z,200.32
2019-01-18T03:58:24.910Z,198.68
2019-01-18T04:00:54.877Z,195.38
2019-01-18T04:03:24.666Z,195.62
2019-01-18T04:05:54.488Z,191.00
2019-01-18T04:08:24.222Z,190.30
2019-01-18T04:10:53.910Z,187.40
2019-01-18T04:13:23.652Z,187.65
2019-01-18T04:15:53.298Z,184.93
2019-01-18T04:18:23.131Z,183.27
2019-01-18T04:20:52.748Z,182.45
2019-01-18T04:23:22.489Z,184.75
2019-01-18T04:25:52.232Z,183.80
2019-01-18T04:28:21.883Z,180.50
2019-01-18T04:30:51.570Z,184.10
2019-01-18T04:33:21.333Z,185.52
2019-01-18T04:35:51.878Z,181.63
2019-01-18T04:38:21.564Z,181.30
2019-01-18T04:40:51.291Z,176.53
2019-01-18T04:43:21.879Z,175.55
2019-01-18T04:45:52.553Z,175.60
2019-01-18T04:48:22.153Z,175.65
2019-01-18T04:50:52.143Z,175.42
2019-01-18T04:53:22.004Z,173.23
2019-01-18T04:55:51.607Z,173.87
2019-01-18T04:58:21.365Z,174.68
2019-01-18T05:00:51.996Z,177.90
2019-01-18T05:03:21.791Z,175.75
2019-01-18T05:05:51.495Z,174.53
2019-01-18T05:08:21.161Z,181.18
2019-01-18T05:10:50.917Z,178.47
2019-01-18T05:13:20.631Z,183.50
2019-01-18T05:15:50.324Z,183.65
2019-01-18T05:18:23.123Z,185.05
2019-01-18T05:20:52.811Z,183.97
2019-01-18T05:23:23.477Z,182.97
2019-01-18T05:25:53.209Z,189.72
2019-01-18T05:28:22.826Z,187.90
2019-01-18T05:30:52.521Z,187.50
2019-01-18T05:33:29.335Z,189.37
2019-01-18T05:35:59.170Z,191.53
2019-01-18T05:38:28.905Z,194.60
2019-01-18T05:40:58.596Z,193.47
2019-01-18T05:43:28.254Z,198.82
2019-01-18T05:45:58.243Z,198.10
2019-01-18T05:48:27.905Z,197.20
2019-01-18T05:50:57.816Z,201.85
2019-01-18T05:53:27.758Z,197.23
2019-01-18T05:55:57.509Z,196.33
2019-01-18T05:58:27.242Z,198.85
2019-01-18T06:00:58.581Z,196.95
2019-01-18T06:03:28.355Z,198.57
2019-01-18T06:05:58.092Z,196.30
2019-01-18T06:08:27.952Z,199.27
2019-01-18T06:10:57.665Z,199.97
2019-01-18T06:13:27.384Z,195.77
2019-01-18T06:15:57.048Z,197.57
2019-01-18T06:18:26.789Z,197.37
2019-01-18T06:20:56.460Z,201.35
2019-01-18T06:23:26.234Z,198.87
2019-01-18T06:25:55.966Z,202.68
2019-01-18T06:28:25.711Z,199.62
2019-01-18T06:31:01.560Z,200.60
2019-01-18T06:33:27.115Z,200.57
2019-01-18T06:35:57.761Z,204.85
2019-01-18T06:38:27.426Z,202.15
2019-01-18T06:40:58.173Z,202.35
2019-01-18T06:43:28.013Z,197.32
2019-01-18T06:45:57.723Z,202.85
2019-01-18T06:48:27.672Z,199.35
2019-01-18T06:50:57.310Z,197.43
2019-01-18T06:53:26.922Z,197.98
2019-01-18T06:56:06.886Z,194.37
2019-01-18T06:58:37.599Z,199.53
2019-01-18T07:01:08.560Z,198.77
2019-01-18T07:03:40.469Z,198.30
2019-01-18T07:06:17.071Z,196.87
2019-01-18T07:08:46.856Z,197.17
2019-01-18T07:11:16.552Z,196.02
2019-01-18T07:13:48.115Z,200.22
2019-01-18T07:16:17.900Z,198.25
2019-01-18T07:18:47.607Z,198.43
2019-01-18T07:21:17.349Z,200.78
2019-01-18T07:23:47.103Z,199.57
2019-01-18T07:26:16.769Z,201.33
2019-01-18T07:28:46.364Z,199.70
2019-01-18T07:31:16.126Z,201.98
2019-01-18T07:33:45.891Z,204.95
2019-01-18T07:36:15.668Z,202.77
2019-01-18T07:38:45.475Z,203.92
2019-01-18T07:41:15.305Z,204.40
2019-01-18T07:43:47.085Z,209.80
2019-01-18T07:46:16.855Z,212.08
2019-01-18T07:48:46.612Z,207.45
2019-01-18T07:51:16.268Z,208.95
2019-01-18T07:53:46.106Z,209.57
2019-01-18T07:56:15.880Z,213.12
2019-01-18T07:58:46.665Z,214.35
2019-01-18T08:01:22.038Z,214.25
2019-01-18T08:03:48.997Z,218.42
2019-01-18T08:06:18.637Z,216.53
2019-01-18T08:08:48.425Z,218.20
2019-01-18T08:11:18.324Z,223.60
2019-01-18T08:13:48.000Z,218.52
2019-01-18T08:16:18.718Z,219.75
2019-01-18T08:18:48.390Z,221.13
2019-01-18T08:21:18.136Z,222.52
2019-01-18T08:23:49.677Z,220.70
2019-01-18T08:26:21.488Z,218.73
2019-01-18T08:28:51.251Z,222.05
2019-01-18T08:31:21.254Z,219.65
2019-01-18T08:33:51.088Z,213.52
2019-01-18T08:36:20.810Z,219.40
2019-01-18T08:38:51.446Z,218.85
2019-01-18T08:41:22.053Z,219.13
2019-01-18T08:43:53.005Z,214.60
2019-01-18T08:46:22.691Z,217.47
2019-01-18T08:48:52.276Z,221.15
2019-01-18T08:51:22.030Z,220.25
2019-01-18T08:53:52.786Z,226.90
2019-01-18T08:56:22.480Z,232.63
2019-01-18T08:58:52.206Z,234.87
2019-01-18T09:01:21.892Z,236.50
2019-01-18T09:03:51.634Z,239.25
2019-01-18T09:06:21.378Z,244.32
2019-01-18T09:08:51.282Z,245.93
2019-01-18T09:11:21.168Z,252.68
2019-01-18T09:13:50.852Z,257.92
2019-01-18T09:16:21.403Z,251.67
2019-01-18T09:18:51.163Z,254.38
2019-01-18T09:21:21.957Z,260.65
2019-01-18T09:23:51.730Z,261.45
2019-01-18T09:26:22.313Z,269.20
2019-01-18T09:28:52.071Z,267.60
2019-01-18T09:31:21.742Z,272.02
2019-01-18T09:33:51.424Z,280.35
2019-01-18T09:36:21.300Z,283.02
2019-01-18T09:38:53.047Z,289.27
2019-01-18T09:41:22.850Z,291.73
2019-01-18T09:43:52.661Z,300.30
2019-01-18T09:46:22.405Z,298.38
2019-01-18T09:48:52.282Z,301.45
2019-01-18T09:51:22.013Z,303.88
2019-01-18T09:53:51.691Z,303.80
2019-01-18T09:56:21.290Z,308.23
2019-01-18T09:58:51.174Z,308.65
2019-01-18T10:01:20.951Z,303.65
2019-01-18T10:03:51.725Z,296.35
2019-01-18T10:06:22.539Z,298.93
2019-01-18T10:08:52.198Z,284.62
2019-01-18T10:11:22.925Z,287.03
2019-01-18T10:13:52.580Z,278.60
2019-01-18T10:16:22.342Z,275.77
2019-01-18T10:18:51.931Z,278.35
2019-01-18T10:21:21.571Z,272.70
2019-01-18T10:23:51.393Z,268.88
2019-01-18T10:26:21.050Z,262.52
2019-01-18T10:28:50.885Z,265.55
2019-01-18T10:31:21.617Z,260.00
2019-01-18T10:33:51.333Z,255.20
2019-01-18T10:36:21.064Z,257.57
2019-01-18T10:38:50.667Z,253.80
2019-01-18T10:41:20.442Z,252.20
2019-01-18T10:43:51.123Z,250.40
2019-01-18T10:46:20.855Z,249.80
2019-01-18T10:48:50.541Z,255.07
2019-01-18T10:51:20.308Z,258.73
2019-01-18T10:53:49.988Z,257.37
2019-01-18T10:56:19.690Z,255.72
2019-01-18T10:58:49.404Z,257.70
2019-01-18T11:01:19.119Z,256.75
2019-01-18T11:03:48.865Z,254.93
2019-01-18T11:06:18.657Z,253.85
2019-01-18T11:08:48.334Z,244.80
2019-01-18T11:11:18.200Z,245.42
2019-01-18T11:13:47.938Z,243.02
2019-01-18T11:16:17.826Z,239.90
2019-01-18T11:18:48.509Z,240.28
2019-01-18T11:21:18.267Z,239.80
2019-01-18T11:23:48.001Z,235.68
2019-01-18T11:26:17.787Z,242.32
2019-01-18T11:28:47.462Z,239.00
2019-01-18T11:31:17.299Z,237.82
2019-01-18T11:33:47.000Z,240.60
2019-01-18T11:36:16.770Z,245.47
2019-01-18T11:38:46.570Z,247.33
2019-01-18T11:41:16.469Z,248.95
2019-01-18T11:43:46.091Z,248.93
2019-01-18T11:46:15.975Z,248.00
2019-01-18T11:48:45.717Z,250.40
2019-01-18T11:51:15.442Z,251.90
2019-01-18T11:53:45.270Z,250.15
2019-01-18T11:56:15.097Z,251.67
2019-01-18T11:58:44.993Z,256.35
2019-01-18T12:01:15.725Z,257.07
2019-01-18T12:03:45.476Z,261.10
2019-01-18T12:06:16.240Z,270.82
2019-01-18T12:08:46.911Z,274.60
2019-01-18T12:11:16.498Z,282.62
2019-01-18T12:13:46.285Z,284.30
2019-01-18T12:16:16.450Z,288.98
2019-01-18T12:18:46.090Z,286.05
2019-01-18T12:21:15.889Z,282.20
2019-01-18T12:23:45.623Z,279.30
2019-01-18T12:26:15.321Z,273.95
2019-01-18T12:28:44.913Z,265.15
2019-01-18T12:31:14.695Z,260.00
2019-01-18T12:33:45.334Z,257.40
2019-01-18T12:36:15.103Z,251.55
2019-01-18T12:38:44.839Z,253.22
2019-01-18T12:41:15.511Z,251.88
2019-01-18T12:43:46.093Z,252.68
2019-01-18T12:46:15.973Z,254.28
2019-01-18T12:48:45.682Z,253.40
2019-01-18T12:51:15.550Z,255.98
2019-01-18T12:53:45.242Z,261.23
2019-01-18T12:56:15.072Z,265.25
2019-01-18T12:58:44.873Z,267.85
2019-01-18T13:01:15.455Z,270.55
2019-01-18T13:03:45.343Z,274.35
2019-01-18T13:06:15.054Z,276.00
2019-01-18T13:08:44.791Z,280.60
2019-01-18T13:11:15.458Z,283.75
2019-01-18T13:13:46.037Z,283.62
2019-01-18T13:16:18.795Z,283.00
2019-01-18T13:18:48.562Z,280.50
2019-01-18T13:21:18.239Z,276.27
2019-01-18T13:23:47.984Z,273.60
2019-01-18T13:26:18.017Z,267.23
2019-01-18T13:28:47.782Z,266.48
2019-01-18T13:31:17.456Z,263.27
2019-01-18T13:33:48.280Z,265.80
2019-01-18T13:36:18.206Z,260.60
2019-01-18T13:38:47.945Z,257.03
2019-01-18T13:41:17.679Z,255.57
2019-01-18T13:43:47.468Z,250.93
2019-01-18T13:46:17.269Z,251.60
2019-01-18T13:48:47.935Z,251.07
2019-01-18T13:51:17.786Z,251.27
2019-01-18T13:53:47.484Z,247.60
2019-01-18T13:56:17.423Z,246.63
2019-01-18T13:58:47.179Z,251.47
2019-01-18T14:01:17.841Z,251.00
2019-01-18T14:03:47.598Z,249.95
2019-01-18T14:06:17.452Z,252.47
2019-01-18T14:08:47.220Z,251.37
2019-01-18T14:11:17.038Z,255.50
2019-01-18T14:13:46.873Z,252.50
2019-01-18T14:16:16.668Z,251.70
2019-01-18T14:18:46.388Z,249.82
2019-01-18T14:21:16.111Z,252.55
2019-01-18T14:23:45.805Z,253.37
2019-01-18T14:26:15.441Z,255.98
2019-01-18T14:28:45.283Z,255.00
2019-01-18T14:31:15.938Z,254.90
2019-01-18T14:33:45.631Z,248.75
2019-01-18T14:36:16.304Z,251.05
2019-01-18T14:38:47.893Z,248.60
2019-01-18T14:41:17.570Z,248.72
2019-01-18T14:43:47.231Z,245.10
2019-01-18T14:46:16.975Z,246.32
2019-01-18T14:48:46.851Z,243.57
2019-01-18T14:51:16.586Z,246.95
2019-01-18T14:53:48.730Z,245.67
2019-01-18T14:56:18.442Z,246.82
2019-01-18T14:58:49.094Z,246.10
2019-01-18T15:01:18.846Z,246.07
2019-01-18T15:03:48.517Z,243.52
2019-01-18T15:06:18.185Z,244.77
2019-01-18T15:08:48.772Z,243.52
2019-01-18T15:11:19.469Z,245.35
2019-01-18T15:13:50.130Z,247.55
2019-01-18T15:16:19.904Z,246.85
2019-01-18T15:18:49.683Z,244.37
2019-01-18T15:21:19.361Z,243.07
2019-01-18T15:23:49.101Z,240.35
2019-01-18T15:26:18.757Z,235.40
2019-01-18T15:28:49.097Z,233.90
2019-01-18T15:31:19.600Z,234.22
2019-01-18T15:33:49.380Z,230.12
2019-01-18T15:36:24.608Z,232.03
2019-01-18T15:38:56.134Z,233.23
2019-01-18T15:41:33.025Z,228.67
2019-01-18T15:44:02.679Z,235.23
2019-01-18T15:46:32.413Z,227.60
2019-01-18T15:49:04.211Z,227.28
2019-01-18T15:51:34.019Z,221.65
2019-01-18T15:54:03.970Z,223.15
2019-01-18T15:56:33.796Z,221.45
2019-01-18T15:59:03.599Z,219.87
2019-01-18T16:01:33.355Z,215.18
2019-01-18T16:04:03.015Z,214.85
2019-01-18T16:06:32.840Z,214.38
2019-01-18T16:09:02.884Z,211.60
2019-01-18T16:11:33.483Z,210.80
2019-01-18T16:14:03.328Z,204.00
2019-01-18T16:16:34.074Z,206.38
2019-01-18T16:19:03.840Z,200.18
2019-01-18T16:21:33.555Z,198.35
2019-01-18T16:24:03.509Z,195.60
2019-01-18T16:26:34.022Z,193.68
2019-01-18T16:29:03.715Z,194.97
2019-01-18T16:31:33.420Z,194.82
2019-01-18T16:34:03.086Z,193.65
2019-01-18T16:36:33.700Z,192.30
2019-01-18T16:39:07.910Z,195.35
2019-01-18T16:41:37.712Z,193.02
2019-01-18T16:44:14.726Z,191.45
2019-01-18T16:46:44.593Z,192.05
2019-01-18T16:49:15.226Z,191.65
2019-01-18T16:51:44.849Z,189.93
2019-01-18T16:54:14.602Z,189.85
2019-01-18T16:56:44.456Z,190.30
2019-01-18T16:59:14.123Z,186.12
2019-01-18T17:01:47.398Z,187.62
2019-01-18T17:04:17.073Z,189.43
2019-01-18T17:06:46.705Z,188.90
2019-01-18T17:09:17.386Z,188.00
2019-01-18T17:11:47.033Z,188.60
2019-01-18T17:14:16.750Z,190.82
2019-01-18T17:16:46.507Z,190.97
2019-01-18T17:19:16.272Z,190.10
2019-01-18T17:21:46.038Z,188.57
2019-01-18T17:24:15.722Z,191.03
2019-01-18T17:26:45.381Z,191.82
2019-01-18T17:29:16.961Z,191.18
2019-01-18T17:31:47.642Z,189.75
2019-01-18T17:34:18.169Z,190.18
2019-01-18T17:36:48.098Z,189.70
2019-01-18T17:39:26.594Z,186.53
2019-01-18T17:42:02.316Z,190.03
2019-01-18T17:44:50.327Z,188.30
2019-01-18T17:47:46.927Z,189.40
2019-01-18T17:50:48.104Z,188.93
2019-01-18T17:53:32.526Z,185.20
2019-01-18T17:56:21.746Z,187.43
2019-01-18T17:59:13.678Z,185.28
2019-01-18T18:01:52.005Z,183.65
2019-01-18T18:04:27.375Z,182.57
2019-01-18T18:07:02.947Z,181.40
2019-01-18T18:09:41.292Z,184.45
2019-01-18T18:12:28.838Z,183.55
2019-01-18T18:15:17.822Z,182.90
2019-01-18T18:17:50.600Z,199.50
2019-01-18T18:20:32.176Z,195.32
2019-01-18T18:23:25.827Z,183.77
2019-01-18T18:25:58.527Z,182.78
2019-01-18T18:28:43.022Z,183.47
2019-01-18T18:31:43.588Z,180.82
2019-01-18T18:34:25.218Z,175.27
2019-01-18T18:37:15.786Z,174.80
2019-01-18T18:39:48.483Z,175.12
2019-01-18T18:42:32.346Z,175.90
2019-01-18T18:45:05.077Z,173.90
2019-01-18T18:47:46.462Z,176.07
2019-01-18T18:50:47.876Z,172.50
2019-01-18T18:53:26.182Z,171.07
2019-01-18T18:56:16.919Z,169.87
2019-01-18T18:59:03.230Z,171.43
2019-01-18T19:01:38.999Z,170.40
2019-01-18T19:04:23.297Z,175.47
2019-01-18T19:06:56.106Z,173.40
2019-01-18T19:09:31.819Z,172.80
2019-01-18T19:12:04.502Z,172.20
2019-01-18T19:14:59.535Z,173.35
2019-01-18T19:17:43.898Z,168.70
2019-01-18T19:20:22.268Z,172.85
2019-01-18T19:23:00.662Z,167.23
2019-01-18T19:25:45.277Z,173.05
2019-01-18T19:28:23.730Z,173.22
2019-01-18T19:31:30.429Z,172.98
2019-01-18T19:34:11.793Z,172.55
2019-01-18T19:36:47.513Z,175.55
2019-01-18T19:39:32.264Z,178.75
2019-01-18T19:42:17.806Z,180.97
2019-01-18T19:45:06.909Z,175.70
2019-01-18T19:47:39.618Z,174.82
2019-01-18T19:50:23.804Z,172.40
2019-01-18T19:53:00.753Z,173.65
2019-01-18T19:55:52.738Z,170.97
2019-01-18T19:58:41.476Z,169.93
2019-01-18T20:01:19.903Z,170.28
2019-01-18T20:03:55.347Z,168.53
2019-01-18T20:06:30.815Z,168.10
2019-01-18T20:09:16.195Z,167.55
2019-01-18T20:11:57.553Z,163.12
2019-01-18T20:14:35.994Z,164.93
2019-01-18T20:17:14.723Z,163.68
2019-01-18T20:19:59.453Z,166.00
2019-01-18T20:22:34.825Z,166.28
2019-01-18T20:25:10.090Z,163.33
2019-01-18T20:27:54.564Z,166.35
2019-01-18T20:30:35.929Z,162.33
2019-01-18T20:33:25.048Z,161.97
2019-01-18T20:36:00.456Z,162.07
2019-01-18T20:38:45.318Z,163.75
2019-01-18T20:41:23.914Z,163.20
2019-01-18T20:44:28.295Z,162.55
2019-01-18T20:47:13.091Z,162.18
2019-01-18T20:49:48.439Z,164.15
2019-01-18T20:52:36.340Z,164.57
2019-01-18T20:55:30.606Z,161.52
2019-01-18T20:58:11.990Z,162.97
2019-01-18T21:01:02.754Z,165.00
2019-01-18T21:03:41.195Z,162.35
2019-01-18T21:06:16.615Z,162.60
2019-01-18T21:09:05.658Z,163.43
2019-01-18T21:11:38.422Z,165.40
2019-01-18T21:14:22.894Z,164.57
2019-01-18T21:17:10.597Z,168.28
2019-01-18T21:19:51.910Z,165.60
2019-01-18T21:22:57.375Z,163.90
2019-01-18T21:25:30.089Z,165.20
2019-01-18T21:28:11.593Z,163.95
2019-01-18T21:30:49.812Z,164.57
2019-01-18T21:33:41.698Z,164.25
2019-01-18T21:36:14.444Z,163.95
2019-01-18T21:39:06.344Z,164.32
2019-01-18T21:41:44.714Z,163.40
2019-01-18T21:44:26.419Z,165.30
2019-01-18T21:47:11.997Z,163.60
2019-01-18T21:49:56.362Z,165.75
2019-01-18T21:52:37.806Z,163.70
2019-01-18T21:55:28.747Z,162.65
2019-01-18T21:58:17.510Z,163.18
2019-01-18T22:01:17.074Z,163.77
2019-01-18T22:04:01.939Z,162.55
2019-01-18T22:06:51.019Z,162.82
2019-01-18T22:09:26.717Z,164.25
2019-01-18T22:12:21.338Z,165.95
2019-01-18T22:15:18.029Z,162.80
2019-01-18T22:18:09.751Z,161.82
2019-01-18T22:20:45.188Z,161.75
2019-01-18T22:23:18.895Z,160.35
2019-01-18T22:25:54.127Z,161.80
2019-01-18T22:28:47.681Z,160.48
2019-01-18T22:31:29.205Z,160.97
2019-01-18T22:34:20.874Z,160.03
2019-01-18T22:37:11.254Z,158.40
2019-01-18T22:39:55.774Z,157.03
2019-01-18T22:42:31.470Z,156.93
2019-01-18T22:45:09.977Z,157.07
2019-01-18T22:48:01.677Z,155.77
2019-01-18T22:50:58.599Z,155.07
2019-01-18T22:53:49.138Z,155.30
2019-01-18T22:56:24.346Z,153.00
2019-01-18T22:58:59.772Z,155.87
2019-01-18T23:01:44.194Z,153.10
2019-01-18T23:04:27.470Z,154.72
2019-01-18T23:07:12.094Z,152.25
2019-01-18T23:10:00.637Z,151.80
2019-01-18T23:12:33.414Z,149.95
2019-01-18T23:15:14.898Z,149.38
2019-01-18T23:18:02.514Z,147.93
2019-01-18T23:20:43.774Z,148.90
2019-01-18T23:23:28.602Z,146.80
2019-01-18T23:26:04.001Z,147.93
2019-01-18T23:28:52.814Z,148.40
2019-01-18T23:31:41.183Z,147.00
2019-01-18T23:34:21.214Z,146.28
2019-01-18T23:36:56.764Z,145.12
2019-01-18T23:39:48.762Z,146.40
2019-01-18T23:42:33.961Z,144.93
2019-01-18T23:45:25.790Z,146.85
2019-01-18T23:48:22.123Z,146.35
2019-01-18T23:51:07.234Z,145.82
2019-01-18T23:53:44.522Z,146.07
2019-01-18T23:56:29.428Z,145.82
2019-01-18T23:59:02.144Z,144.30
